createdAt,value
2018-12-31T00:01:24.793Z,12.80
2018-12-31T00:03:51.232Z,12.03
2018-12-31T00:06:23.971Z,13.03
2018-12-31T00:08:50.889Z,13.57
2018-12-31T00:11:28.887Z,14.53
2018-12-31T00:13:55.737Z,12.77
2018-12-31T00:16:22.549Z,12.07
2018-12-31T00:18:52.184Z,12.83
2018-12-31T00:21:22.390Z,12.80
2018-12-31T00:23:48.886Z,14.03
2018-12-31T00:26:18.718Z,12.80
2018-12-31T00:28:47.234Z,12.28
2018-12-31T00:31:13.687Z,10.53
2018-12-31T00:33:40.140Z,10.40
2018-12-31T00:36:06.547Z,11.87
2018-12-31T00:38:32.817Z,10.60
2018-12-31T00:40:59.463Z,10.67
2018-12-31T00:43:26.113Z,12.47
2018-12-31T00:45:52.825Z,11.17
2018-12-31T00:48:19.713Z,10.50
2018-12-31T00:50:46.187Z,10.27
2018-12-31T00:53:14.858Z,11.70
2018-12-31T00:55:43.498Z,11.50
2018-12-31T00:58:10.062Z,11.63
2018-12-31T01:00:36.524Z,11.40
2018-12-31T01:03:03.030Z,11.00
2018-12-31T01:05:29.564Z,11.67
2018-12-31T01:07:56.059Z,14.53
2018-12-31T01:10:22.552Z,12.57
2018-12-31T01:12:52.560Z,12.47
2018-12-31T01:15:21.841Z,14.00
2018-12-31T01:17:50.468Z,13.23
2018-12-31T01:20:18.949Z,13.43
2018-12-31T01:22:47.820Z,15.03
2018-12-31T01:25:14.355Z,14.77
2018-12-31T01:27:50.240Z,13.30
2018-12-31T01:30:21.385Z,12.27
2018-12-31T01:32:57.833Z,13.43
2018-12-31T01:35:24.761Z,13.23
2018-12-31T01:37:54.144Z,10.40
2018-12-31T01:40:29.808Z,9.97
2018-12-31T01:43:07.855Z,9.93
2018-12-31T01:45:35.611Z,10.00
2018-12-31T01:48:02.372Z,9.30
2018-12-31T01:50:31.624Z,11.10
2018-12-31T01:53:03.550Z,10.37
2018-12-31T01:55:43.286Z,9.20
2018-12-31T01:58:12.788Z,9.90
2018-12-31T02:00:42.431Z,10.97
2018-12-31T02:03:24.218Z,13.27
2018-12-31T02:05:52.945Z,9.53
2018-12-31T02:08:22.597Z,9.77
2018-12-31T02:10:51.991Z,9.40
2018-12-31T02:13:24.445Z,12.70
2018-12-31T02:15:52.978Z,10.37
2018-12-31T02:18:22.499Z,13.30
2018-12-31T02:20:53.240Z,12.43
2018-12-31T02:23:22.722Z,10.50
2018-12-31T02:25:55.075Z,12.30
2018-12-31T02:28:23.856Z,10.93
2018-12-31T02:30:55.234Z,11.10
2018-12-31T02:33:27.192Z,11.17
2018-12-31T02:36:12.907Z,10.47
2018-12-31T02:38:36.858Z,10.57
2018-12-31T02:41:06.693Z,9.77
2018-12-31T02:43:35.093Z,10.33
2018-12-31T02:46:06.702Z,11.13
2018-12-31T02:48:38.542Z,9.70
2018-12-31T02:51:10.821Z,11.70
2018-12-31T02:53:36.919Z,10.47
2018-12-31T02:56:05.905Z,10.30
2018-12-31T02:58:34.379Z,9.20
2018-12-31T03:01:03.871Z,8.40
2018-12-31T03:03:33.460Z,10.33
2018-12-31T03:06:00.074Z,10.70
2018-12-31T03:08:39.171Z,8.90
2018-12-31T03:11:07.975Z,10.47
2018-12-31T03:13:34.672Z,9.33
2018-12-31T03:16:06.494Z,8.57
2018-12-31T03:18:41.933Z,9.60
2018-12-31T03:21:28.453Z,9.33
2018-12-31T03:24:04.680Z,8.37
2018-12-31T03:26:37.305Z,7.60
2018-12-31T03:29:09.668Z,6.70
2018-12-31T03:31:37.625Z,6.47
2018-12-31T03:34:14.713Z,6.73
2018-12-31T03:36:40.115Z,6.53
2018-12-31T03:39:09.003Z,6.17
2018-12-31T03:41:35.746Z,5.23
2018-12-31T03:44:09.787Z,5.10
2018-12-31T03:46:42.793Z,4.47
2018-12-31T03:49:09.678Z,4.87
2018-12-31T03:51:40.188Z,6.90
2018-12-31T03:54:14.169Z,5.37
2018-12-31T03:56:50.394Z,5.47
2018-12-31T03:59:20.425Z,5.17
2018-12-31T04:01:59.862Z,5.50
2018-12-31T04:04:34.230Z,5.63
2018-12-31T04:07:03.487Z,5.77
2018-12-31T04:09:31.556Z,6.90
2018-12-31T04:11:57.826Z,5.87
2018-12-31T04:14:24.092Z,6.50
2018-12-31T04:16:56.856Z,8.33
2018-12-31T04:19:34.984Z,7.23
2018-12-31T04:22:13.361Z,7.20
2018-12-31T04:24:40.151Z,7.90
2018-12-31T04:27:10.179Z,6.90
2018-12-31T04:32:14.130Z,7.53
2018-12-31T04:34:41.029Z,10.90
2018-12-31T04:37:15.419Z,7.53
2018-12-31T04:39:44.950Z,6.97
2018-12-31T04:42:14.869Z,6.90
2018-12-31T04:44:53.920Z,8.23
2018-12-31T04:47:20.722Z,7.70
2018-12-31T04:49:49.398Z,7.80
2018-12-31T04:52:23.710Z,8.97
2018-12-31T04:54:55.092Z,8.00
2018-12-31T04:57:28.587Z,8.10
2018-12-31T05:00:02.786Z,7.57
2018-12-31T05:02:32.520Z,7.03
2018-12-31T05:04:59.332Z,7.97
2018-12-31T05:07:33.253Z,7.67
2018-12-31T05:10:05.624Z,7.33
2018-12-31T05:12:34.697Z,6.87
2018-12-31T05:15:10.897Z,5.87
2018-12-31T05:17:37.226Z,6.27
2018-12-31T05:20:04.322Z,6.33
2018-12-31T05:22:30.712Z,7.10
2018-12-31T05:24:57.120Z,6.63
2018-12-31T05:27:23.670Z,5.83
2018-12-31T05:29:50.160Z,5.30
2018-12-31T05:32:16.401Z,6.33
2018-12-31T05:34:42.913Z,5.57
2018-12-31T05:37:09.240Z,5.47
2018-12-31T05:39:35.647Z,5.43
2018-12-31T05:42:06.606Z,6.20
2018-12-31T05:44:32.139Z,5.27
2018-12-31T05:47:07.826Z,6.37
2018-12-31T05:49:46.056Z,5.10
2018-12-31T05:52:57.805Z,5.57
2018-12-31T05:55:22.935Z,4.67
2018-12-31T05:57:49.784Z,5.53
2018-12-31T06:00:22.366Z,5.20
2018-12-31T06:02:56.351Z,4.93
2018-12-31T06:05:30.076Z,4.60
2018-12-31T06:07:58.749Z,6.03
2018-12-31T06:10:26.753Z,5.17
2018-12-31T06:12:58.247Z,4.47
2018-12-31T06:15:27.784Z,5.80
2018-12-31T06:17:54.310Z,5.00
2018-12-31T06:20:20.807Z,5.80
2018-12-31T06:22:47.716Z,5.87
2018-12-31T06:25:14.112Z,5.90
2018-12-31T06:27:40.650Z,5.87
2018-12-31T06:30:07.167Z,5.53
2018-12-31T06:32:33.685Z,4.77
2018-12-31T06:35:00.431Z,4.90
2018-12-31T06:37:26.972Z,4.30
2018-12-31T06:39:53.688Z,4.30
2018-12-31T06:42:20.353Z,4.17
2018-12-31T06:44:46.923Z,3.77
2018-12-31T06:47:13.449Z,3.77
2018-12-31T06:49:40.104Z,4.00
2018-12-31T06:52:06.701Z,3.83
2018-12-31T06:54:33.236Z,3.90
2018-12-31T06:56:59.801Z,3.90
2018-12-31T06:59:26.314Z,3.80
2018-12-31T07:01:52.756Z,3.53
2018-12-31T07:04:19.306Z,3.40
2018-12-31T07:06:46.994Z,3.30
2018-12-31T07:09:13.505Z,3.20
2018-12-31T07:11:40.089Z,3.00
2018-12-31T07:14:06.470Z,3.20
2018-12-31T07:16:33.209Z,2.70
2018-12-31T07:18:59.736Z,3.00
2018-12-31T07:21:26.233Z,2.60
2018-12-31T07:23:52.660Z,3.33
2018-12-31T07:26:19.229Z,3.80
2018-12-31T07:28:49.795Z,5.57
2018-12-31T07:31:16.435Z,11.27
2018-12-31T07:33:42.985Z,37.17
2018-12-31T07:36:09.423Z,32.73
2018-12-31T07:38:35.871Z,32.10
2018-12-31T07:41:02.509Z,26.77
2018-12-31T07:43:29.247Z,19.77
2018-12-31T07:45:55.856Z,16.63
2018-12-31T07:48:22.385Z,13.43
2018-12-31T07:50:49.157Z,10.83
2018-12-31T07:53:15.608Z,9.50
2018-12-31T07:55:42.139Z,11.77
2018-12-31T07:58:08.804Z,13.87
2018-12-31T08:00:35.379Z,10.17
2018-12-31T08:03:01.904Z,10.57
2018-12-31T08:05:28.562Z,10.90
2018-12-31T08:07:55.150Z,10.03
2018-12-31T08:10:21.580Z,9.57
2018-12-31T08:12:48.265Z,6.87
2018-12-31T08:15:14.737Z,5.97
2018-12-31T08:17:41.198Z,5.93
2018-12-31T08:20:07.911Z,5.03
2018-12-31T08:22:34.348Z,4.70
2018-12-31T08:25:01.032Z,5.20
2018-12-31T08:27:27.602Z,4.97
2018-12-31T08:29:54.243Z,4.37
2018-12-31T08:32:20.752Z,5.20
2018-12-31T08:34:47.308Z,4.73
2018-12-31T08:37:14.010Z,4.67
2018-12-31T08:39:40.675Z,4.60
2018-12-31T08:42:07.285Z,4.60
2018-12-31T08:44:34.016Z,4.13
2018-12-31T08:47:00.968Z,4.07
2018-12-31T08:49:27.396Z,3.93
2018-12-31T08:51:53.957Z,3.90
2018-12-31T08:54:20.720Z,4.57
2018-12-31T08:56:47.072Z,4.03
2018-12-31T08:59:13.480Z,3.67
2018-12-31T09:01:40.223Z,3.20
2018-12-31T09:04:06.638Z,3.70
2018-12-31T09:06:33.161Z,3.03
2018-12-31T09:08:59.633Z,2.80
2018-12-31T09:11:26.091Z,4.00
2018-12-31T09:13:58.387Z,5.03
2018-12-31T09:16:24.905Z,4.37
2018-12-31T09:18:51.441Z,4.30
2018-12-31T09:21:17.875Z,3.33
2018-12-31T09:23:44.543Z,4.23
2018-12-31T09:26:11.002Z,4.97
2018-12-31T09:28:37.631Z,7.60
2018-12-31T09:31:04.194Z,6.40
2018-12-31T09:33:30.645Z,5.40
2018-12-31T09:35:57.237Z,4.90
2018-12-31T09:38:23.697Z,4.93
2018-12-31T09:40:50.449Z,4.33
2018-12-31T09:43:17.077Z,4.50
2018-12-31T09:45:43.643Z,4.33
2018-12-31T09:48:10.422Z,4.23
2018-12-31T09:50:36.928Z,3.43
2018-12-31T09:53:03.533Z,3.63
2018-12-31T09:55:30.140Z,3.80
2018-12-31T09:57:56.787Z,3.73
2018-12-31T10:00:23.448Z,3.53
2018-12-31T10:02:52.256Z,4.03
2018-12-31T10:05:18.778Z,4.40
2018-12-31T10:07:45.510Z,4.33
2018-12-31T10:10:12.037Z,4.10
2018-12-31T10:12:38.617Z,3.90
2018-12-31T10:15:06.000Z,2.67
2018-12-31T10:17:34.768Z,2.90
2018-12-31T10:20:01.393Z,4.00
2018-12-31T10:22:27.882Z,4.57
2018-12-31T10:24:55.545Z,3.17
2018-12-31T10:27:22.208Z,3.10
2018-12-31T10:29:48.747Z,2.73
2018-12-31T10:32:15.598Z,2.20
2018-12-31T10:34:42.456Z,3.43
2018-12-31T10:37:13.322Z,2.80
2018-12-31T10:39:40.242Z,2.20
2018-12-31T10:42:06.822Z,2.30
2018-12-31T10:44:33.475Z,2.00
2018-12-31T10:47:00.190Z,2.20
2018-12-31T10:49:26.791Z,2.00
2018-12-31T10:51:53.570Z,2.03
2018-12-31T10:54:20.480Z,1.83
2018-12-31T10:56:47.019Z,2.10
2018-12-31T10:59:13.453Z,2.13
2018-12-31T11:01:40.185Z,1.93
2018-12-31T11:04:06.838Z,2.27
2018-12-31T11:06:33.416Z,2.10
2018-12-31T11:08:59.993Z,1.90
2018-12-31T11:11:26.478Z,2.13
2018-12-31T11:13:53.028Z,2.20
2018-12-31T11:16:19.477Z,1.90
2018-12-31T11:18:46.610Z,2.10
2018-12-31T11:21:13.125Z,2.80
2018-12-31T11:23:39.857Z,2.97
2018-12-31T11:26:06.411Z,3.70
2018-12-31T11:28:32.983Z,3.80
2018-12-31T11:30:59.513Z,3.07
2018-12-31T11:33:26.059Z,4.07
2018-12-31T11:35:52.607Z,4.50
2018-12-31T11:38:19.289Z,11.07
2018-12-31T11:40:45.809Z,27.00
2018-12-31T11:43:12.667Z,37.70
2018-12-31T11:45:44.968Z,26.00
2018-12-31T11:48:11.743Z,23.23
2018-12-31T11:50:38.429Z,16.77
2018-12-31T11:53:04.815Z,13.90
2018-12-31T11:55:31.465Z,11.50
2018-12-31T11:57:58.133Z,8.00
2018-12-31T12:00:24.927Z,6.97
2018-12-31T12:02:51.615Z,5.37
2018-12-31T12:05:18.126Z,4.73
2018-12-31T12:07:44.640Z,4.03
2018-12-31T12:10:11.300Z,4.40
2018-12-31T12:12:37.611Z,4.00
2018-12-31T12:15:04.703Z,3.43
2018-12-31T12:17:31.367Z,4.30
2018-12-31T12:19:57.831Z,3.50
2018-12-31T12:22:24.548Z,4.27
2018-12-31T12:24:51.109Z,4.27
2018-12-31T12:27:17.540Z,4.20
2018-12-31T12:29:44.123Z,4.00
2018-12-31T12:32:10.872Z,4.87
2018-12-31T12:34:38.514Z,4.33
2018-12-31T12:37:05.233Z,6.77
2018-12-31T12:39:31.921Z,5.20
2018-12-31T12:41:58.435Z,5.37
2018-12-31T12:44:25.271Z,6.67
2018-12-31T12:46:51.870Z,6.60
2018-12-31T12:49:18.388Z,6.93
2018-12-31T12:51:44.900Z,7.20
2018-12-31T12:54:11.516Z,5.83
2018-12-31T12:56:38.044Z,5.77
2018-12-31T12:59:04.659Z,6.10
2018-12-31T13:01:31.189Z,5.40
2018-12-31T13:03:57.703Z,4.57
2018-12-31T13:06:24.581Z,4.07
2018-12-31T13:08:51.381Z,5.40
2018-12-31T13:11:17.893Z,5.23
2018-12-31T13:13:44.499Z,4.97
2018-12-31T13:16:11.505Z,5.20
2018-12-31T13:18:38.050Z,4.93
2018-12-31T13:21:04.769Z,4.23
2018-12-31T13:23:31.715Z,4.50
2018-12-31T13:25:58.252Z,6.73
2018-12-31T13:28:25.226Z,5.90
2018-12-31T13:30:51.795Z,6.97
2018-12-31T13:33:18.283Z,5.67
2018-12-31T13:35:45.032Z,5.50
2018-12-31T13:38:11.561Z,4.60
2018-12-31T13:40:38.140Z,4.97
2018-12-31T13:43:04.662Z,3.80
2018-12-31T13:45:31.431Z,4.77
2018-12-31T13:47:58.187Z,4.47
2018-12-31T13:50:24.618Z,4.20
2018-12-31T13:52:51.200Z,3.50
2018-12-31T13:55:18.803Z,3.37
2018-12-31T13:57:45.570Z,3.10
2018-12-31T14:00:12.296Z,3.10
2018-12-31T14:02:38.619Z,3.30
2018-12-31T14:05:07.556Z,3.20
2018-12-31T14:07:33.996Z,3.10
2018-12-31T14:10:00.656Z,2.93
2018-12-31T14:12:27.169Z,3.20
2018-12-31T14:14:53.827Z,3.17
2018-12-31T14:17:20.455Z,3.22
2018-12-31T14:19:47.222Z,3.70
2018-12-31T14:22:13.695Z,3.93
2018-12-31T14:24:40.177Z,3.67
2018-12-31T14:27:06.692Z,3.70
2018-12-31T14:29:33.121Z,3.60
2018-12-31T14:31:59.643Z,4.17
2018-12-31T14:34:26.375Z,3.63
2018-12-31T14:36:53.046Z,3.23
2018-12-31T14:39:19.591Z,3.13
2018-12-31T14:41:46.089Z,3.50
2018-12-31T14:44:12.737Z,3.20
2018-12-31T14:46:39.372Z,3.00
2018-12-31T14:49:06.395Z,2.87
2018-12-31T14:51:33.069Z,4.20
2018-12-31T14:53:59.812Z,4.30
2018-12-31T14:56:26.343Z,3.70
2018-12-31T14:58:52.846Z,3.23
2018-12-31T15:01:19.531Z,3.53
2018-12-31T15:03:46.216Z,3.43
2018-12-31T15:06:12.949Z,3.50
2018-12-31T15:08:39.469Z,3.07
2018-12-31T15:11:06.359Z,3.27
2018-12-31T15:13:32.921Z,3.00
2018-12-31T15:15:59.593Z,3.67
2018-12-31T15:18:26.499Z,2.83
2018-12-31T15:20:53.225Z,2.70
2018-12-31T15:23:19.927Z,2.17
2018-12-31T15:25:46.422Z,2.27
2018-12-31T15:28:13.112Z,2.53
2018-12-31T15:30:39.521Z,2.07
2018-12-31T15:33:06.561Z,3.00
2018-12-31T15:35:33.317Z,3.30
2018-12-31T15:37:59.968Z,2.60
2018-12-31T15:40:33.116Z,3.17
2018-12-31T15:42:59.689Z,2.70
2018-12-31T15:45:26.231Z,3.30
2018-12-31T15:47:52.775Z,3.20
2018-12-31T15:50:19.329Z,3.03
2018-12-31T15:52:45.922Z,2.93
2018-12-31T15:55:12.535Z,2.87
2018-12-31T15:57:39.155Z,2.60
2018-12-31T16:00:07.268Z,2.40
2018-12-31T16:02:34.057Z,2.13
2018-12-31T16:05:01.415Z,2.07
2018-12-31T16:07:28.533Z,2.07
2018-12-31T16:09:55.011Z,2.97
2018-12-31T16:12:21.440Z,2.90
2018-12-31T16:14:48.196Z,3.23
2018-12-31T16:17:14.699Z,3.50
2018-12-31T16:19:41.344Z,3.00
2018-12-31T16:22:07.885Z,2.97
2018-12-31T16:24:34.316Z,2.40
2018-12-31T16:27:01.126Z,2.70
2018-12-31T16:29:27.579Z,2.80
2018-12-31T16:31:54.845Z,3.40
2018-12-31T16:34:21.266Z,3.43
2018-12-31T16:36:47.754Z,3.50
2018-12-31T16:39:14.213Z,3.20
2018-12-31T16:41:40.708Z,3.47
2018-12-31T16:44:07.399Z,7.77
2018-12-31T16:46:34.127Z,4.17
2018-12-31T16:49:00.895Z,4.63
2018-12-31T16:51:27.451Z,4.90
2018-12-31T16:53:54.042Z,4.17
2018-12-31T16:56:20.517Z,4.60
2018-12-31T16:58:47.226Z,4.87
2018-12-31T17:01:13.756Z,5.07
2018-12-31T17:03:40.204Z,5.73
2018-12-31T17:06:07.040Z,6.80
2018-12-31T17:08:33.624Z,8.63
2018-12-31T17:11:00.145Z,7.80
2018-12-31T17:13:26.694Z,7.30
2018-12-31T17:15:53.288Z,6.93
2018-12-31T17:18:20.011Z,5.60
2018-12-31T17:20:46.641Z,6.13
2018-12-31T17:23:13.154Z,5.87
2018-12-31T17:25:39.550Z,6.37
2018-12-31T17:28:05.949Z,6.20
2018-12-31T17:30:32.445Z,6.07
2018-12-31T17:32:59.254Z,5.40
2018-12-31T17:35:25.633Z,5.20
2018-12-31T17:37:52.197Z,4.53
2018-12-31T17:40:18.632Z,4.60
2018-12-31T17:42:45.146Z,5.10
2018-12-31T17:45:12.761Z,4.17
2018-12-31T17:47:39.834Z,4.03
2018-12-31T17:50:06.332Z,5.20
2018-12-31T17:52:32.956Z,5.40
2018-12-31T17:54:59.759Z,4.53
2018-12-31T17:57:26.419Z,5.13
2018-12-31T17:59:53.011Z,4.30
2018-12-31T18:02:19.515Z,4.43
2018-12-31T18:04:45.939Z,3.83
2018-12-31T18:07:12.478Z,3.40
2018-12-31T18:09:39.052Z,3.20
2018-12-31T18:12:06.746Z,2.90
2018-12-31T18:14:33.251Z,2.53
2018-12-31T18:16:59.852Z,2.50
2018-12-31T18:19:26.170Z,2.83
2018-12-31T18:21:52.760Z,4.47
2018-12-31T18:24:19.301Z,5.33
2018-12-31T18:26:45.954Z,4.47
2018-12-31T18:29:12.467Z,5.47
2018-12-31T18:31:39.008Z,4.37
2018-12-31T18:34:05.540Z,4.30
2018-12-31T18:36:31.901Z,4.17
2018-12-31T18:38:58.282Z,3.77
2018-12-31T18:41:24.820Z,3.87
2018-12-31T18:43:51.293Z,3.30
2018-12-31T18:46:17.657Z,4.60
2018-12-31T18:48:44.703Z,3.30
2018-12-31T18:51:11.093Z,3.10
2018-12-31T18:53:39.585Z,3.20
2018-12-31T18:56:05.860Z,2.70
2018-12-31T18:58:32.639Z,2.63
2018-12-31T19:00:59.191Z,6.00
2018-12-31T19:03:25.920Z,5.40
2018-12-31T19:05:52.551Z,5.00
2018-12-31T19:08:18.902Z,4.33
2018-12-31T19:10:46.739Z,5.30
2018-12-31T19:13:13.276Z,4.30
2018-12-31T19:15:39.934Z,4.23
2018-12-31T19:18:07.016Z,3.97
2018-12-31T19:20:33.435Z,4.17
2018-12-31T19:22:59.975Z,5.63
2018-12-31T19:25:26.377Z,5.70
2018-12-31T19:27:52.750Z,5.07
2018-12-31T19:30:19.243Z,7.03
2018-12-31T19:32:45.667Z,5.87
2018-12-31T19:35:12.231Z,5.70
2018-12-31T19:37:38.894Z,5.07
2018-12-31T19:40:05.545Z,4.70
2018-12-31T19:42:33.598Z,4.13
2018-12-31T19:45:00.275Z,4.30
2018-12-31T19:47:26.664Z,3.50
2018-12-31T19:49:55.670Z,3.40
2018-12-31T19:52:22.236Z,3.87
2018-12-31T19:54:48.670Z,3.93
2018-12-31T19:57:15.410Z,4.77
2018-12-31T19:59:41.852Z,4.63
2018-12-31T20:02:08.478Z,4.77
2018-12-31T20:04:35.326Z,5.50
2018-12-31T20:07:03.541Z,5.23
2018-12-31T20:09:30.147Z,6.17
2018-12-31T20:11:56.720Z,5.73
2018-12-31T20:14:23.219Z,6.37
2018-12-31T20:16:49.857Z,5.73
2018-12-31T20:19:16.789Z,4.43
2018-12-31T20:21:43.395Z,6.47
2018-12-31T20:24:09.937Z,12.43
2018-12-31T20:26:36.734Z,13.03
2018-12-31T20:29:03.360Z,12.67
2018-12-31T20:31:30.120Z,10.53
2018-12-31T20:33:56.742Z,7.90
2018-12-31T20:36:23.485Z,6.87
2018-12-31T20:38:49.917Z,6.17
2018-12-31T20:41:16.606Z,6.30
2018-12-31T20:43:43.133Z,5.00
2018-12-31T20:46:09.671Z,5.03
2018-12-31T20:48:36.156Z,4.53
2018-12-31T20:51:02.717Z,5.50
2018-12-31T20:53:29.623Z,5.00
2018-12-31T20:55:56.146Z,5.03
2018-12-31T20:58:22.681Z,4.00
2018-12-31T21:00:49.085Z,4.20
2018-12-31T21:03:15.500Z,4.40
2018-12-31T21:05:44.811Z,3.80
2018-12-31T21:08:18.743Z,4.90
2018-12-31T21:10:45.524Z,4.17
2018-12-31T21:13:11.968Z,4.13
2018-12-31T21:15:38.405Z,3.40
2018-12-31T21:18:04.930Z,3.50
2018-12-31T21:20:31.442Z,3.37
2018-12-31T21:22:58.125Z,2.87
2018-12-31T21:25:24.918Z,5.30
2018-12-31T21:27:51.410Z,4.20
2018-12-31T21:30:17.945Z,5.57
2018-12-31T21:32:44.508Z,4.00
2018-12-31T21:35:11.054Z,5.07
2018-12-31T21:37:37.985Z,4.07
2018-12-31T21:40:06.727Z,5.57
2018-12-31T21:42:33.046Z,3.67
2018-12-31T21:44:59.423Z,10.57
2018-12-31T21:47:26.357Z,9.27
2018-12-31T21:49:52.743Z,11.87
2018-12-31T21:52:19.230Z,8.93
2018-12-31T21:54:45.817Z,7.10
2018-12-31T21:57:12.265Z,6.00
2018-12-31T21:59:38.890Z,5.80
2018-12-31T22:02:05.547Z,4.73
2018-12-31T22:04:32.149Z,4.57
2018-12-31T22:07:01.979Z,4.23
2018-12-31T22:09:28.549Z,5.27
2018-12-31T22:11:55.300Z,6.07
2018-12-31T22:14:21.971Z,4.97
2018-12-31T22:16:48.627Z,4.60
2018-12-31T22:19:15.286Z,4.27
2018-12-31T22:21:41.732Z,6.63
2018-12-31T22:24:08.573Z,6.43
2018-12-31T22:26:35.125Z,5.50
2018-12-31T22:29:01.548Z,6.60
2018-12-31T22:31:27.911Z,4.70
2018-12-31T22:33:54.502Z,4.50
2018-12-31T22:36:20.897Z,7.13
2018-12-31T22:38:47.313Z,10.87
2018-12-31T22:41:13.938Z,10.80
2018-12-31T22:43:40.672Z,8.43
2018-12-31T22:46:07.197Z,10.63
2018-12-31T22:48:33.735Z,7.90
2018-12-31T22:51:00.324Z,8.40
2018-12-31T22:53:26.951Z,11.97
2018-12-31T22:55:53.409Z,12.67
2018-12-31T22:58:19.843Z,11.40
2018-12-31T23:00:47.510Z,9.13
2018-12-31T23:03:13.935Z,7.63
2018-12-31T23:05:40.555Z,11.70
2018-12-31T23:08:07.041Z,11.27
2018-12-31T23:10:33.548Z,19.47
2018-12-31T23:13:00.379Z,28.97
2018-12-31T23:15:26.910Z,26.73
2018-12-31T23:17:53.463Z,49.23
2018-12-31T23:20:19.869Z,46.63
2018-12-31T23:22:46.393Z,54.07
2018-12-31T23:25:13.156Z,63.53
2018-12-31T23:27:39.823Z,52.00
2018-12-31T23:30:08.308Z,104.67
2018-12-31T23:32:34.685Z,80.20
2018-12-31T23:35:01.135Z,80.93
2018-12-31T23:37:27.618Z,91.93
2018-12-31T23:39:54.040Z,74.73
2018-12-31T23:42:20.668Z,58.10
2018-12-31T23:44:52.933Z,53.70
2018-12-31T23:47:15.297Z,94.90
2018-12-31T23:49:41.724Z,151.80
2018-12-31T23:52:08.305Z,108.37
2018-12-31T23:54:34.976Z,100.07
2018-12-31T23:57:01.641Z,108.53
2018-12-31T23:59:28.109Z,101.27
